Naha2 — JD3425 — position and weather

sailwx.info

Track history (hours):
 
Tides and Currents Weather Stations Pressure Air Temp Water Temp Dewpoint Dewpoint Depression Visibility Wind Speed Wind Dir Waves Ship Positions

Naha2

Last reported at 2017-Sep-16 11:17 UTC. Time now 2017-Sep-20 01:54 UTC.
Position N 34°34' E 134°48'.

Length 99 m; draft 5.3 m.

Type: Cargo ship. MMSI: 431004022.

Date/timePositionNaut miles runAvg speedWind from/ knotsBaromVisibWave heightAir tempDewpointWater temp
2017-Sep-16 11:17N 34°34' E 134°48'620.9
2017-Sep-16 11:00N 34°36' E 134°54'919.1
2017-Sep-16 10:30N 34°36' E 135°06'1019.4
2017-Sep-16 10:00N 34°36' E 135°18'815.2
2017-Sep-16 09:30N 34°39' E 135°26'1 0.4
2017-Sep-16 06:41N 34°38' E 135°26'0 0.0
2017-Sep-16 03:35N 34°38' E 135°26'0 0.0
2017-Sep-16 03:29N 34°38' E 135°26'0 0.0
2017-Sep-16 01:23N 34°38' E 135°26'0 0.0
2017-Sep-16 00:59N 34°38' E 135°26'0 0.0
2017-Sep-16 00:17N 34°38' E 135°26'0 0.0
2017-Sep-15 23:59N 34°38' E 135°26'0 0.0
2017-Sep-15 23:29N 34°38' E 135°26'0 0.0
2017-Sep-15 22:59N 34°38' E 135°26'0 0.0
2017-Sep-15 22:29N 34°38' E 135°26'0 0.6
2017-Sep-15 22:00N 34°38' E 135°27'3 6.9
2017-Sep-15 21:30N 34°38' E 135°23'816.0
2017-Sep-15 21:00N 34°32' E 135°16'816.3
2017-Sep-15 20:30N 34°26' E 135°09'816.5
2017-Sep-15 20:00N 34°20' E 135°02'815.9
2017-Sep-15 19:30N 34°13' E 134°58'  
2017-Sep-12 11:32N 34°21' E 134°60'118.9
2017-Sep-12 11:28N 34°22' E 135°00'919.0
2017-Sep-12 11:00N 34°28' E 135°08'918.9
2017-Sep-12 10:30N 34°34' E 135°17'816.7
2017-Sep-12 10:00N 34°39' E 135°25'2 3.3
2017-Sep-12 09:29N 34°38' E 135°26'0 0.0
2017-Sep-11 23:00N 34°38' E 135°26'0 0.0
2017-Sep-11 22:30N 34°38' E 135°26'0 0.0
2017-Sep-11 22:00N 34°38' E 135°26'0 0.0
2017-Sep-11 21:30N 34°38' E 135°26'0 0.0
2017-Sep-11 20:42N 34°38' E 135°26'0 0.0
2017-Sep-11 20:24N 34°38' E 135°26'0 0.0
2017-Sep-11 19:48N 34°38' E 135°26'0 0.0
2017-Sep-11 18:30N 34°38' E 135°26'0 0.0
2017-Sep-11 18:00N 34°38' E 135°26'0 0.0
2017-Sep-11 17:30N 34°38' E 135°26'0 0.0
2017-Sep-11 16:36N 34°38' E 135°26'0 0.0
2017-Sep-11 16:30N 34°38' E 135°26'0 0.0
2017-Sep-11 16:00N 34°38' E 135°26'0 0.0
2017-Sep-11 15:30N 34°38' E 135°26'0 0.0
2017-Sep-11 15:00N 34°38' E 135°26'0 0.0
2017-Sep-11 14:30N 34°38' E 135°26'0 0.0
2017-Sep-11 14:00N 34°38' E 135°26'0 0.0
2017-Sep-11 13:12N 34°38' E 135°26'0 0.0
2017-Sep-11 13:00N 34°38' E 135°26'0 0.0
2017-Sep-11 12:30N 34°38' E 135°26'0 0.0
2017-Sep-11 12:00N 34°38' E 135°26'0 0.0
2017-Sep-11 11:30N 34°38' E 135°26'0 0.0
2017-Sep-11 11:00N 34°38' E 135°26'0 0.0
2017-Sep-11 10:30N 34°38' E 135°26'0 0.0
2017-Sep-11 10:00N 34°38' E 135°26'0 0.0
2017-Sep-11 09:30N 34°38' E 135°26'0 0.0
2017-Sep-10 23:30N 34°38' E 135°26'1 2.6
2017-Sep-10 23:00N 34°39' E 135°26'611.1
2017-Sep-10 22:30N 34°36' E 135°20'2 2.8
2017-Sep-10 21:51N 34°35' E 135°18'0 0.0
2017-Sep-10 21:21N 34°35' E 135°18'0 0.0
2017-Sep-10 20:57N 34°35' E 135°18'0 0.0
2017-Sep-10 20:27N 34°35' E 135°18'0 0.1
2017-Sep-10 19:50N 34°35' E 135°18'1 3.6
2017-Sep-10 19:30N 34°34' E 135°17'714.9
2017-Sep-10 19:01N 34°28' E 135°12'816.5
2017-Sep-10 18:30N 34°22' E 135°05'815.4
2017-Sep-10 18:00N 34°16' E 134°59'816.7
2017-Sep-10 17:30N 34°08' E 134°57'  
2017-Sep-07 11:14N 34°13' E 134°57'617.7
2017-Sep-07 10:54N 34°18' E 134°58'717.4
2017-Sep-07 10:29N 34°25' E 135°03'919.4
2017-Sep-07 10:00N 34°30' E 135°12'918.8
2017-Sep-07 09:30N 34°36' E 135°20'5 9.9
2017-Sep-07 08:58N 34°38' E 135°27'  
Track history (hours):
 
Tides and Currents Weather Stations Pressure Air Temp Water Temp Dewpoint Dewpoint Depression Visibility Wind Speed Wind Dir Waves Ship Positions

Naha2

Last reported at 2017-Sep-16 11:17 UTC. Time now 2017-Sep-20 01:54 UTC.
Position N 34°34' E 134°48'.

Length 99 m; draft 5.3 m.

Type: Cargo ship. MMSI: 431004022.

Date/timePositionNaut miles runAvg speedWind from/ knotsBaromVisibWave heightAir tempDewpointWater temp
2017-Sep-16 11:17N 34°34' E 134°48'620.9
2017-Sep-16 11:00N 34°36' E 134°54'919.1
2017-Sep-16 10:30N 34°36' E 135°06'1019.4
2017-Sep-16 10:00N 34°36' E 135°18'815.2
2017-Sep-16 09:30N 34°39' E 135°26'1 0.4
2017-Sep-16 06:41N 34°38' E 135°26'0 0.0
2017-Sep-16 03:35N 34°38' E 135°26'0 0.0
2017-Sep-16 03:29N 34°38' E 135°26'0 0.0
2017-Sep-16 01:23N 34°38' E 135°26'0 0.0
2017-Sep-16 00:59N 34°38' E 135°26'0 0.0
2017-Sep-16 00:17N 34°38' E 135°26'0 0.0
2017-Sep-15 23:59N 34°38' E 135°26'0 0.0
2017-Sep-15 23:29N 34°38' E 135°26'0 0.0
2017-Sep-15 22:59N 34°38' E 135°26'0 0.0
2017-Sep-15 22:29N 34°38' E 135°26'0 0.6
2017-Sep-15 22:00N 34°38' E 135°27'3 6.9
2017-Sep-15 21:30N 34°38' E 135°23'816.0
2017-Sep-15 21:00N 34°32' E 135°16'816.3
2017-Sep-15 20:30N 34°26' E 135°09'816.5
2017-Sep-15 20:00N 34°20' E 135°02'815.9
2017-Sep-15 19:30N 34°13' E 134°58'  
2017-Sep-12 11:32N 34°21' E 134°60'118.9
2017-Sep-12 11:28N 34°22' E 135°00'919.0
2017-Sep-12 11:00N 34°28' E 135°08'918.9
2017-Sep-12 10:30N 34°34' E 135°17'816.7
2017-Sep-12 10:00N 34°39' E 135°25'2 3.3
2017-Sep-12 09:29N 34°38' E 135°26'0 0.0
2017-Sep-11 23:00N 34°38' E 135°26'0 0.0
2017-Sep-11 22:30N 34°38' E 135°26'0 0.0
2017-Sep-11 22:00N 34°38' E 135°26'0 0.0
2017-Sep-11 21:30N 34°38' E 135°26'0 0.0
2017-Sep-11 20:42N 34°38' E 135°26'0 0.0
2017-Sep-11 20:24N 34°38' E 135°26'0 0.0
2017-Sep-11 19:48N 34°38' E 135°26'0 0.0
2017-Sep-11 18:30N 34°38' E 135°26'0 0.0
2017-Sep-11 18:00N 34°38' E 135°26'0 0.0
2017-Sep-11 17:30N 34°38' E 135°26'0 0.0
2017-Sep-11 16:36N 34°38' E 135°26'0 0.0
2017-Sep-11 16:30N 34°38' E 135°26'0 0.0
2017-Sep-11 16:00N 34°38' E 135°26'0 0.0
2017-Sep-11 15:30N 34°38' E 135°26'0 0.0
2017-Sep-11 15:00N 34°38' E 135°26'0 0.0
2017-Sep-11 14:30N 34°38' E 135°26'0 0.0
2017-Sep-11 14:00N 34°38' E 135°26'0 0.0
2017-Sep-11 13:12N 34°38' E 135°26'0 0.0
2017-Sep-11 13:00N 34°38' E 135°26'0 0.0
2017-Sep-11 12:30N 34°38' E 135°26'0 0.0
2017-Sep-11 12:00N 34°38' E 135°26'0 0.0
2017-Sep-11 11:30N 34°38' E 135°26'0 0.0
2017-Sep-11 11:00N 34°38' E 135°26'0 0.0
2017-Sep-11 10:30N 34°38' E 135°26'0 0.0
2017-Sep-11 10:00N 34°38' E 135°26'0 0.0
2017-Sep-11 09:30N 34°38' E 135°26'0 0.0
2017-Sep-10 23:30N 34°38' E 135°26'1 2.6
2017-Sep-10 23:00N 34°39' E 135°26'611.1
2017-Sep-10 22:30N 34°36' E 135°20'2 2.8
2017-Sep-10 21:51N 34°35' E 135°18'0 0.0
2017-Sep-10 21:21N 34°35' E 135°18'0 0.0
2017-Sep-10 20:57N 34°35' E 135°18'0 0.0
2017-Sep-10 20:27N 34°35' E 135°18'0 0.1
2017-Sep-10 19:50N 34°35' E 135°18'1 3.6
2017-Sep-10 19:30N 34°34' E 135°17'714.9
2017-Sep-10 19:01N 34°28' E 135°12'816.5
2017-Sep-10 18:30N 34°22' E 135°05'815.4
2017-Sep-10 18:00N 34°16' E 134°59'816.7
2017-Sep-10 17:30N 34°08' E 134°57'  
2017-Sep-07 11:14N 34°13' E 134°57'617.7
2017-Sep-07 10:54N 34°18' E 134°58'717.4
2017-Sep-07 10:29N 34°25' E 135°03'919.4
2017-Sep-07 10:00N 34°30' E 135°12'918.8
2017-Sep-07 09:30N 34°36' E 135°20'5 9.9
2017-Sep-07 08:58N 34°38' E 135°27'  

Dump ship's entire track history